sensor_id;sensor_type;location;lat;lon;timestamp;pressure;altitude;pressure_sealevel;temperature;humidity
59170;BME280;52474;52.236;5.114;2023-01-28T00:00:31;103054.63;;;1.85;100.00
59170;BME280;52474;52.236;5.114;2023-01-28T00:02:56;103082.34;;;1.97;100.00
59170;BME280;52474;52.236;5.114;2023-01-28T00:05:22;103089.34;;;1.93;100.00
59170;BME280;52474;52.236;5.114;2023-01-28T00:07:49;103089.41;;;1.89;100.00
59170;BME280;52474;52.236;5.114;2023-01-28T00:10:15;103084.16;;;1.90;100.00
59170;BME280;52474;52.236;5.114;2023-01-28T00:12:41;103085.03;;;1.89;100.00
59170;BME280;52474;52.236;5.114;2023-01-28T00:15:08;103088.53;;;1.88;100.00
59170;BME280;52474;52.236;5.114;2023-01-28T00:17:34;103087.66;;;1.89;100.00
59170;BME280;52474;52.236;5.114;2023-01-28T00:20:03;103079.81;;;1.89;100.00
59170;BME280;52474;52.236;5.114;2023-01-28T00:22:29;103072.91;;;1.85;100.00
59170;BME280;52474;52.236;5.114;2023-01-28T00:24:56;103075.53;;;1.85;100.00
59170;BME280;52474;52.236;5.114;2023-01-28T00:27:21;103069.41;;;1.86;100.00
59170;BME280;52474;52.236;5.114;2023-01-28T00:29:47;103065.13;;;1.82;100.00
59170;BME280;52474;52.236;5.114;2023-01-28T00:32:13;103059.84;;;1.85;100.00
59170;BME280;52474;52.236;5.114;2023-01-28T00:34:39;103067.72;;;1.82;100.00
59170;BME280;52474;52.236;5.114;2023-01-28T00:37:06;103056.50;;;1.76;100.00
59170;BME280;52474;52.236;5.114;2023-01-28T00:39:32;103066.88;;;1.80;100.00
59170;BME280;52474;52.236;5.114;2023-01-28T00:41:59;103071.25;;;1.78;100.00
59170;BME280;52474;52.236;5.114;2023-01-28T00:44:25;103074.69;;;1.82;100.00
59170;BME280;52474;52.236;5.114;2023-01-28T00:46:51;103072.13;;;1.79;100.00
59170;BME280;52474;52.236;5.114;2023-01-28T00:49:20;103083.41;;;1.79;100.00
59170;BME280;52474;52.236;5.114;2023-01-28T00:51:46;103053.13;;;1.66;100.00
59170;BME280;52474;52.236;5.114;2023-01-28T00:54:14;103030.69;;;1.51;100.00
59170;BME280;52474;52.236;5.114;2023-01-28T00:56:40;103071.31;;;1.75;100.00
59170;BME280;52474;52.236;5.114;2023-01-28T00:59:06;103073.03;;;1.75;100.00
59170;BME280;52474;52.236;5.114;2023-01-28T01:01:32;103069.56;;;1.74;100.00
59170;BME280;52474;52.236;5.114;2023-01-28T01:03:58;103067.81;;;1.75;100.00
59170;BME280;52474;52.236;5.114;2023-01-28T01:06:35;103069.56;;;1.74;100.00
59170;BME280;52474;52.236;5.114;2023-01-28T01:09:05;103069.56;;;1.76;100.00
59170;BME280;52474;52.236;5.114;2023-01-28T01:11:31;103070.41;;;1.76;100.00
59170;BME280;52474;52.236;5.114;2023-01-28T01:13:58;103065.19;;;1.76;100.00
59170;BME280;52474;52.236;5.114;2023-01-28T01:16:29;103070.41;;;1.76;100.00
59170;BME280;52474;52.236;5.114;2023-01-28T01:18:56;103071.31;;;1.75;100.00
59170;BME280;52474;52.236;5.114;2023-01-28T01:21:25;103067.81;;;1.75;100.00
59170;BME280;52474;52.236;5.114;2023-01-28T01:23:52;103071.31;;;1.74;100.00
59170;BME280;52474;52.236;5.114;2023-01-28T01:26:18;103069.56;;;1.76;100.00
59170;BME280;52474;52.236;5.114;2023-01-28T01:28:45;103074.72;;;1.77;100.00
59170;BME280;52474;52.236;5.114;2023-01-28T01:31:16;103073.03;;;1.76;100.00
59170;BME280;52474;52.236;5.114;2023-01-28T01:33:45;103073.03;;;1.75;100.00
59170;BME280;52474;52.236;5.114;2023-01-28T01:36:13;103073.03;;;1.75;100.00
59170;BME280;52474;52.236;5.114;2023-01-28T01:38:39;103084.31;;;1.77;100.00
59170;BME280;52474;52.236;5.114;2023-01-28T01:41:08;103073.97;;;1.70;100.00
59170;BME280;52474;52.236;5.114;2023-01-28T01:43:58;103077.44;;;1.71;100.00
59170;BME280;52474;52.236;5.114;2023-01-28T01:48:54;103087.00;;;1.74;100.00
59170;BME280;52474;52.236;5.114;2023-01-28T01:51:26;103077.44;;;1.73;100.00
59170;BME280;52474;52.236;5.114;2023-01-28T01:53:56;103078.34;;;1.70;100.00
59170;BME280;52474;52.236;5.114;2023-01-28T01:56:32;103077.44;;;1.71;100.00
59170;BME280;52474;52.236;5.114;2023-01-28T01:59:01;103078.34;;;1.70;100.00
59170;BME280;52474;52.236;5.114;2023-01-28T02:01:30;103076.63;;;1.67;100.00
59170;BME280;52474;52.236;5.114;2023-01-28T02:04:19;103080.94;;;1.70;100.00
59170;BME280;52474;52.236;5.114;2023-01-28T02:06:47;103065.44;;;1.58;100.00
59170;BME280;52474;52.236;5.114;2023-01-28T02:09:26;103058.50;;;1.55;100.00
59170;BME280;52474;52.236;5.114;2023-01-28T02:12:00;103078.44;;;1.61;100.00
59170;BME280;52474;52.236;5.114;2023-01-28T02:14:29;103075.84;;;1.59;100.00
59170;BME280;52474;52.236;5.114;2023-01-28T02:16:56;103083.63;;;1.64;100.00
59170;BME280;52474;52.236;5.114;2023-01-28T02:19:29;103061.16;;;1.49;100.00
59170;BME280;52474;52.236;5.114;2023-01-28T02:25:11;103082.81;;;1.60;100.00
59170;BME280;52474;52.236;5.114;2023-01-28T02:30:38;103082.88;;;1.53;100.00
59170;BME280;52474;52.236;5.114;2023-01-28T02:33:10;103109.75;;;1.62;100.00
59170;BME280;52474;52.236;5.114;2023-01-28T02:35:48;103079.50;;;1.44;100.00
59170;BME280;52474;52.236;5.114;2023-01-28T02:38:19;103099.38;;;1.56;100.00
59170;BME280;52474;52.236;5.114;2023-01-28T02:40:50;103082.94;;;1.48;100.00
59170;BME280;52474;52.236;5.114;2023-01-28T02:45:58;103092.44;;;1.55;100.00
59170;BME280;52474;52.236;5.114;2023-01-28T02:48:43;103078.63;;;1.44;100.00
59170;BME280;52474;52.236;5.114;2023-01-28T02:54:11;103095.06;;;1.52;100.00
59170;BME280;52474;52.236;5.114;2023-01-28T02:56:51;103098.53;;;1.53;100.00
59170;BME280;52474;52.236;5.114;2023-01-28T02:59:38;103079.53;;;1.41;100.00
59170;BME280;52474;52.236;5.114;2023-01-28T03:07:25;103082.88;;;1.53;100.00
59170;BME280;52474;52.236;5.114;2023-01-28T03:09:57;103078.63;;;1.44;100.00
59170;BME280;52474;52.236;5.114;2023-01-28T03:12:30;103086.34;;;1.55;100.00
59170;BME280;52474;52.236;5.114;2023-01-28T03:15:21;103087.28;;;1.49;100.00
59170;BME280;52474;52.236;5.114;2023-01-28T03:18:19;103073.38;;;1.47;100.00
59170;BME280;52474;52.236;5.114;2023-01-28T03:21:10;103095.09;;;1.50;100.00
59170;BME280;52474;52.236;5.114;2023-01-28T03:24:05;103092.50;;;1.47;100.00
59170;BME280;52474;52.236;5.114;2023-01-28T03:27:00;103087.22;;;1.52;100.00
59170;BME280;52474;52.236;5.114;2023-01-28T03:29:54;103069.09;;;1.41;100.00
59170;BME280;52474;52.236;5.114;2023-01-28T03:32:41;103082.88;;;1.53;100.00
59170;BME280;52474;52.236;5.114;2023-01-28T03:35:29;103083.78;;;1.50;100.00
59170;BME280;52474;52.236;5.114;2023-01-28T03:38:15;103061.34;;;1.32;100.00
59170;BME280;52474;52.236;5.114;2023-01-28T03:41:00;103078.63;;;1.44;100.00
59170;BME280;52474;52.236;5.114;2023-01-28T03:43:30;103069.91;;;1.46;100.00
59170;BME280;52474;52.236;5.114;2023-01-28T03:45:56;103078.63;;;1.44;100.00
59170;BME280;52474;52.236;5.114;2023-01-28T03:48:25;103083.91;;;1.38;100.00
59170;BME280;52474;52.236;5.114;2023-01-28T03:50:54;103103.00;;;1.46;100.00
59170;BME280;52474;52.236;5.114;2023-01-28T03:53:22;103085.56;;;1.46;100.00
59170;BME280;52474;52.236;5.114;2023-01-28T03:55:50;103097.72;;;1.50;100.00
59170;BME280;52474;52.236;5.114;2023-01-28T03:58:17;103097.69;;;1.52;100.00
59170;BME280;52474;52.236;5.114;2023-01-28T04:00:44;103105.56;;;1.47;100.00
59170;BME280;52474;52.236;5.114;2023-01-28T04:03:13;103096.91;;;1.45;100.00
59170;BME280;52474;52.236;5.114;2023-01-28T04:06:04;103099.50;;;1.45;100.00
59170;BME280;52474;52.236;5.114;2023-01-28T04:08:46;103103.84;;;1.46;100.00
59170;BME280;52474;52.236;5.114;2023-01-28T04:11:52;103096.06;;;1.43;100.00
59170;BME280;52474;52.236;5.114;2023-01-28T04:14:36;103105.59;;;1.44;100.00
59170;BME280;52474;52.236;5.114;2023-01-28T04:17:26;103115.13;;;1.48;100.00
59170;BME280;52474;52.236;5.114;2023-01-28T04:19:51;103118.66;;;1.46;100.00
59170;BME280;52474;52.236;5.114;2023-01-28T04:22:18;103112.53;;;1.48;100.00
59170;BME280;52474;52.236;5.114;2023-01-28T04:24:44;103112.56;;;1.45;100.00
59170;BME280;52474;52.236;5.114;2023-01-28T04:27:10;103120.38;;;1.48;100.00
59170;BME280;52474;52.236;5.114;2023-01-28T04:29:36;103106.53;;;1.39;100.00
59170;BME280;52474;52.236;5.114;2023-01-28T04:32:22;103095.25;;;1.35;100.00
59170;BME280;52474;52.236;5.114;2023-01-28T04:35:20;103108.25;;;1.43;100.00
59170;BME280;52474;52.236;5.114;2023-01-28T04:37:58;103109.94;;;1.47;100.00
59170;BME280;52474;52.236;5.114;2023-01-28T04:40:36;103109.94;;;1.47;100.00
59170;BME280;52474;52.236;5.114;2023-01-28T04:43:11;103113.38;;;1.49;100.00
59170;BME280;52474;52.236;5.114;2023-01-28T04:45:55;103100.38;;;1.44;100.00
59170;BME280;52474;52.236;5.114;2023-01-28T04:48:42;103063.22;;;1.21;100.00
59170;BME280;52474;52.236;5.114;2023-01-28T04:51:26;103104.75;;;1.44;100.00
59170;BME280;52474;52.236;5.114;2023-01-28T04:54:15;103105.63;;;1.43;100.00
59170;BME280;52474;52.236;5.114;2023-01-28T04:56:41;103099.59;;;1.36;100.00
59170;BME280;52474;52.236;5.114;2023-01-28T04:59:07;103106.50;;;1.42;100.00
59170;BME280;52474;52.236;5.114;2023-01-28T05:01:33;103103.88;;;1.42;100.00
59170;BME280;52474;52.236;5.114;2023-01-28T05:03:59;103106.50;;;1.42;100.00
59170;BME280;52474;52.236;5.114;2023-01-28T05:06:31;103097.00;;;1.36;100.00
59170;BME280;52474;52.236;5.114;2023-01-28T05:09:00;103065.03;;;1.13;100.00
59170;BME280;52474;52.236;5.114;2023-01-28T05:11:26;103116.97;;;1.39;100.00
59170;BME280;52474;52.236;5.114;2023-01-28T05:13:57;103108.34;;;1.32;100.00
59170;BME280;52474;52.236;5.114;2023-01-28T05:16:25;103121.31;;;1.40;100.00
59170;BME280;52474;52.236;5.114;2023-01-28T05:18:51;103113.47;;;1.40;100.00
59170;BME280;52474;52.236;5.114;2023-01-28T05:21:19;103103.13;;;1.32;100.00
59170;BME280;52474;52.236;5.114;2023-01-28T05:23:50;103115.22;;;1.39;100.00
59170;BME280;52474;52.236;5.114;2023-01-28T05:26:16;103114.38;;;1.37;100.00
59170;BME280;52474;52.236;5.114;2023-01-28T05:28:46;103117.84;;;1.41;100.00
59170;BME280;52474;52.236;5.114;2023-01-28T05:31:12;103112.63;;;1.41;100.00
59170;BME280;52474;52.236;5.114;2023-01-28T05:33:37;103109.97;;;1.42;100.00
59170;BME280;52474;52.236;5.114;2023-01-28T05:36:06;103103.94;;;1.39;100.00
59170;BME280;52474;52.236;5.114;2023-01-28T05:38:32;103092.63;;;1.35;100.00
59170;BME280;52474;52.236;5.114;2023-01-28T05:40:58;103097.00;;;1.36;100.00
59170;BME280;52474;52.236;5.114;2023-01-28T05:43:23;103070.22;;;1.17;100.00
59170;BME280;52474;52.236;5.114;2023-01-28T05:46:12;103106.59;;;1.34;100.00
59170;BME280;52474;52.236;5.114;2023-01-28T05:49:16;103101.38;;;1.34;100.00
59170;BME280;52474;52.236;5.114;2023-01-28T05:52:05;103117.91;;;1.33;100.00
59170;BME280;52474;52.236;5.114;2023-01-28T05:54:31;103114.41;;;1.34;100.00
59170;BME280;52474;52.236;5.114;2023-01-28T05:56:57;103109.19;;;1.34;100.00
59170;BME280;52474;52.236;5.114;2023-01-28T05:59:22;103109.19;;;1.34;100.00
59170;BME280;52474;52.236;5.114;2023-01-28T06:01:51;103112.69;;;1.33;100.00
59170;BME280;52474;52.236;5.114;2023-01-28T06:04:19;103112.69;;;1.33;100.00
59170;BME280;52474;52.236;5.114;2023-01-28T06:06:45;103114.47;;;1.31;100.00
59170;BME280;52474;52.236;5.114;2023-01-28T06:09:11;103098.03;;;1.21;100.00
59170;BME280;52474;52.236;5.114;2023-01-28T06:11:37;103120.53;;;1.33;100.00
59170;BME280;52474;52.236;5.114;2023-01-28T06:14:04;103059.97;;;0.96;100.00
59170;BME280;52474;52.236;5.114;2023-01-28T06:16:41;103104.88;;;1.33;100.00
59170;BME280;52474;52.236;5.114;2023-01-28T06:19:23;103109.22;;;1.31;100.00
59170;BME280;52474;52.236;5.114;2023-01-28T06:21:49;103121.41;;;1.32;100.00
59170;BME280;52474;52.236;5.114;2023-01-28T06:24:16;103114.41;;;1.33;100.00
59170;BME280;52474;52.236;5.114;2023-01-28T06:26:42;103089.38;;;1.13;100.00
59170;BME280;52474;52.236;5.114;2023-01-28T06:29:07;103111.03;;;1.26;100.00
59170;BME280;52474;52.236;5.114;2023-01-28T06:31:33;103090.22;;;1.15;100.00
59170;BME280;52474;52.236;5.114;2023-01-28T06:33:59;103124.03;;;1.29;100.00
59170;BME280;52474;52.236;5.114;2023-01-28T06:36:24;103133.63;;;1.27;100.00
59170;BME280;52474;52.236;5.114;2023-01-28T06:38:50;103141.47;;;1.25;100.00
59170;BME280;52474;52.236;5.114;2023-01-28T06:41:16;103143.25;;;1.22;100.00
59170;BME280;52474;52.236;5.114;2023-01-28T06:43:41;103129.34;;;1.21;100.00
59170;BME280;52474;52.236;5.114;2023-01-28T06:46:07;103132.84;;;1.19;100.00
59170;BME280;52474;52.236;5.114;2023-01-28T06:48:33;103130.25;;;1.17;100.00
59170;BME280;52474;52.236;5.114;2023-01-28T06:50:58;103143.25;;;1.22;100.00
59170;BME280;52474;52.236;5.114;2023-01-28T06:53:24;103142.41;;;1.21;100.00
59170;BME280;52474;52.236;5.114;2023-01-28T06:55:50;103134.59;;;1.18;100.00
59170;BME280;52474;52.236;5.114;2023-01-28T06:58:16;103141.53;;;1.19;100.00
59170;BME280;52474;52.236;5.114;2023-01-28T07:00:41;103138.94;;;1.18;100.00
59170;BME280;52474;52.236;5.114;2023-01-28T07:03:07;103137.19;;;1.21;100.00
59170;BME280;52474;52.236;5.114;2023-01-28T07:05:33;103135.44;;;1.20;100.00
59170;BME280;52474;52.236;5.114;2023-01-28T07:07:59;103135.47;;;1.19;100.00
59170;BME280;52474;52.236;5.114;2023-01-28T07:10:27;103139.81;;;1.18;100.00
59170;BME280;52474;52.236;5.114;2023-01-28T07:12:53;103137.22;;;1.18;100.00
59170;BME280;52474;52.236;5.114;2023-01-28T07:15:18;103116.41;;;1.09;100.00
59170;BME280;52474;52.236;5.114;2023-01-28T07:17:44;103134.63;;;1.12;100.00
59170;BME280;52474;52.236;5.114;2023-01-28T07:20:11;103141.53;;;1.21;100.00
59170;BME280;52474;52.236;5.114;2023-01-28T07:22:40;103152.81;;;1.23;100.00
59170;BME280;52474;52.236;5.114;2023-01-28T07:25:07;103154.56;;;1.22;100.00
59170;BME280;52474;52.236;5.114;2023-01-28T07:27:33;103146.72;;;1.22;100.00
59170;BME280;52474;52.236;5.114;2023-01-28T07:29:58;103147.56;;;1.23;100.00
59170;BME280;52474;52.236;5.114;2023-01-28T07:32:24;103151.09;;;1.23;100.00
59170;BME280;52474;52.236;5.114;2023-01-28T07:34:52;103149.31;;;1.24;100.00
59170;BME280;52474;52.236;5.114;2023-01-28T07:37:18;103137.22;;;1.18;100.00
59170;BME280;52474;52.236;5.114;2023-01-28T07:39:44;103153.69;;;1.22;100.00
59170;BME280;52474;52.236;5.114;2023-01-28T07:42:10;103168.50;;;1.20;100.00
59170;BME280;52474;52.236;5.114;2023-01-28T07:44:37;103152.91;;;1.11;100.00
59170;BME280;52474;52.236;5.114;2023-01-28T07:47:04;103176.28;;;1.24;100.00
59170;BME280;52474;52.236;5.114;2023-01-28T07:49:30;103165.84;;;1.24;100.00
59170;BME280;52474;52.236;5.114;2023-01-28T07:51:56;103168.38;;;1.34;100.00
59170;BME280;52474;52.236;5.114;2023-01-28T07:54:22;103166.66;;;1.31;100.00
59170;BME280;52474;52.236;5.114;2023-01-28T07:56:48;103162.31;;;1.30;100.00
59170;BME280;52474;52.236;5.114;2023-01-28T07:59:13;103164.03;;;1.33;100.00
59170;BME280;52474;52.236;5.114;2023-01-28T08:01:39;103172.75;;;1.33;100.00
59170;BME280;52474;52.236;5.114;2023-01-28T08:04:05;103140.63;;;1.22;100.00
59170;BME280;52474;52.236;5.114;2023-01-28T08:06:31;103164.91;;;1.33;100.00
59170;BME280;52474;52.236;5.114;2023-01-28T08:09:05;103161.41;;;1.34;100.00
59170;BME280;52474;52.236;5.114;2023-01-28T08:11:41;103161.41;;;1.36;100.00
59170;BME280;52474;52.236;5.114;2023-01-28T08:14:09;103177.00;;;1.40;100.00
59170;BME280;52474;52.236;5.114;2023-01-28T08:16:35;103173.53;;;1.41;100.00
59170;BME280;52474;52.236;5.114;2023-01-28T08:19:01;103178.75;;;1.43;100.00
59170;BME280;52474;52.236;5.114;2023-01-28T08:21:27;103174.38;;;1.40;100.00
59170;BME280;52474;52.236;5.114;2023-01-28T08:23:53;103171.84;;;1.36;100.00
59170;BME280;52474;52.236;5.114;2023-01-28T08:26:19;103179.72;;;1.31;100.00
59170;BME280;52474;52.236;5.114;2023-01-28T08:28:45;103170.09;;;1.36;100.00
59170;BME280;52474;52.236;5.114;2023-01-28T08:31:10;103174.25;;;1.56;100.00
59170;BME280;52474;52.236;5.114;2023-01-28T08:33:36;103177.53;;;1.76;100.00
59170;BME280;52474;52.236;5.114;2023-01-28T08:36:03;103172.25;;;1.79;100.00
59170;BME280;52474;52.236;5.114;2023-01-28T08:38:29;103192.28;;;1.80;100.00
59170;BME280;52474;52.236;5.114;2023-01-28T08:40:55;103171.34;;;1.82;100.00
59170;BME280;52474;52.236;5.114;2023-01-28T08:43:22;103187.75;;;1.98;100.00
59170;BME280;52474;52.236;5.114;2023-01-28T08:45:48;103190.44;;;1.88;100.00
59170;BME280;52474;52.236;5.114;2023-01-28T08:48:16;103189.53;;;1.91;100.00
59170;BME280;52474;52.236;5.114;2023-01-28T08:50:43;103185.16;;;1.95;100.00
59170;BME280;52474;52.236;5.114;2023-01-28T08:53:15;103190.53;;;1.82;100.00
59170;BME280;52474;52.236;5.114;2023-01-28T08:55:41;103176.00;;;1.55;100.00
59170;BME280;52474;52.236;5.114;2023-01-28T08:58:11;103194.34;;;1.47;100.00
59170;BME280;52474;52.236;5.114;2023-01-28T09:00:38;103200.47;;;1.46;100.00
59170;BME280;52474;52.236;5.114;2023-01-28T09:03:04;103196.91;;;1.54;100.00
59170;BME280;52474;52.236;5.114;2023-01-28T09:05:30;103201.34;;;1.45;100.00
59170;BME280;52474;52.236;5.114;2023-01-28T09:08:08;103204.88;;;1.41;100.00
59170;BME280;52474;52.236;5.114;2023-01-28T09:10:35;103210.13;;;1.38;100.00
59170;BME280;52474;52.236;5.114;2023-01-28T09:13:11;103216.25;;;1.33;100.00
59170;BME280;52474;52.236;5.114;2023-01-28T09:15:39;103215.34;;;1.35;100.00
59170;BME280;52474;52.236;5.114;2023-01-28T09:18:05;103224.94;;;1.35;100.00
59170;BME280;52474;52.236;5.114;2023-01-28T09:20:31;103227.41;;;1.50;100.00
59170;BME280;52474;52.236;5.114;2023-01-28T09:22:58;103225.09;;;2.06;100.00
59170;BME280;52474;52.236;5.114;2023-01-28T09:25:24;103236.91;;;2.38;100.00
59170;BME280;52474;52.236;5.114;2023-01-28T09:27:49;103230.09;;;2.91;100.00
59170;BME280;52474;52.236;5.114;2023-01-28T09:30:15;103217.63;;;3.59;100.00
59170;BME280;52474;52.236;5.114;2023-01-28T09:32:41;103218.78;;;3.43;100.00
59170;BME280;52474;52.236;5.114;2023-01-28T09:35:08;103228.66;;;3.26;100.00
59170;BME280;52474;52.236;5.114;2023-01-28T09:37:34;103231.22;;;3.30;100.00
59170;BME280;52474;52.236;5.114;2023-01-28T09:40:01;103233.47;;;2.97;100.00
59170;BME280;52474;52.236;5.114;2023-01-28T09:43:09;103215.81;;;2.51;100.00
59170;BME280;52474;52.236;5.114;2023-01-28T09:45:39;103204.88;;;2.20;100.00
59170;BME280;52474;52.236;5.114;2023-01-28T09:48:13;103227.56;;;2.17;100.00
59170;BME280;52474;52.236;5.114;2023-01-28T09:50:44;103229.41;;;2.08;100.00
59170;BME280;52474;52.236;5.114;2023-01-28T09:53:29;103243.38;;;2.07;100.00
59170;BME280;52474;52.236;5.114;2023-01-28T09:55:59;103229.47;;;2.04;100.00
59170;BME280;52474;52.236;5.114;2023-01-28T09:58:25;103247.56;;;2.22;100.00
59170;BME280;52474;52.236;5.114;2023-01-28T10:09:45;103241.38;;;5.54;100.00
59170;BME280;52474;52.236;5.114;2023-01-28T10:15:23;103226.69;;;13.99;97.81
59170;BME280;52474;52.236;5.114;2023-01-28T10:18:08;103215.78;;;14.59;100.00
59170;BME280;52474;52.236;5.114;2023-01-28T10:21:01;103222.91;;;16.91;85.91
59170;BME280;52474;52.236;5.114;2023-01-28T10:23:43;103219.88;;;18.22;88.07
59170;BME280;52474;52.236;5.114;2023-01-28T10:26:21;103220.53;;;19.55;85.69
59170;BME280;52474;52.236;5.114;2023-01-28T10:28:53;103221.38;;;18.04;62.28
59170;BME280;52474;52.236;5.114;2023-01-28T10:31:22;103221.44;;;19.65;72.04
59170;BME280;52474;52.236;5.114;2023-01-28T10:33:48;103220.25;;;20.50;63.92
59170;BME280;52474;52.236;5.114;2023-01-28T10:36:15;103214.22;;;20.97;59.37
59170;BME280;52474;52.236;5.114;2023-01-28T10:38:42;103213.44;;;21.53;63.75
59170;BME280;52474;52.236;5.114;2023-01-28T10:41:10;103216.09;;;20.36;61.71
59170;BME280;52474;52.236;5.114;2023-01-28T10:43:39;103214.22;;;20.77;61.00
59170;BME280;52474;52.236;5.114;2023-01-28T10:46:11;103198.13;;;22.19;51.25
59170;BME280;52474;52.236;5.114;2023-01-28T10:49:23;103205.97;;;20.98;59.02
59170;BME280;52474;52.236;5.114;2023-01-28T10:51:39;103192.19;;;21.21;55.59
59170;BME280;52474;52.236;5.114;2023-01-28T10:54:23;103184.28;;;22.77;56.36
59170;BME280;52474;52.236;5.114;2023-01-28T10:56:52;103162.66;;;22.41;52.77
59170;BME280;52474;52.236;5.114;2023-01-28T10:59:31;103166.06;;;22.16;49.51
59170;BME280;52474;52.236;5.114;2023-01-28T11:04:45;103142.47;;;20.96;46.21
59170;BME280;52474;52.236;5.114;2023-01-28T11:07:19;103154.16;;;16.43;60.94
59170;BME280;52474;52.236;5.114;2023-01-28T11:09:47;103140.66;;;17.73;63.34
59170;BME280;52474;52.236;5.114;2023-01-28T11:12:20;103146.25;;;14.21;71.80
59170;BME280;52474;52.236;5.114;2023-01-28T11:14:51;103138.75;;;12.97;85.29
59170;BME280;52474;52.236;5.114;2023-01-28T11:17:18;103144.50;;;10.76;100.00
59170;BME280;52474;52.236;5.114;2023-01-28T11:19:48;103122.91;;;16.44;89.74
59170;BME280;52474;52.236;5.114;2023-01-28T11:22:37;103120.97;;;14.68;77.51
59170;BME280;52474;52.236;5.114;2023-01-28T11:27:39;103094.44;;;12.20;92.22
59170;BME280;52474;52.236;5.114;2023-01-28T11:30:15;103094.75;;;14.21;87.99
59170;BME280;52474;52.236;5.114;2023-01-28T11:32:45;103072.59;;;20.36;66.40
59170;BME280;52474;52.236;5.114;2023-01-28T11:35:26;103103.78;;;22.27;54.20
59170;BME280;52474;52.236;5.114;2023-01-28T11:37:58;103096.66;;;22.80;49.95
59170;BME280;52474;52.236;5.114;2023-01-28T11:40:24;103099.53;;;22.60;50.06
59170;BME280;52474;52.236;5.114;2023-01-28T11:42:52;103099.91;;;22.65;47.75
59170;BME280;52474;52.236;5.114;2023-01-28T11:45:24;103106.16;;;23.70;42.83
59170;BME280;52474;52.236;5.114;2023-01-28T11:50:34;103117.34;;;24.26;42.63
59170;BME280;52474;52.236;5.114;2023-01-28T11:53:11;103122.69;;;23.33;43.88
59170;BME280;52474;52.236;5.114;2023-01-28T11:56:09;103120.91;;;22.54;42.34
59170;BME280;52474;52.236;5.114;2023-01-28T12:01:38;103115.50;;;22.54;45.91
59170;BME280;52474;52.236;5.114;2023-01-28T12:04:20;103117.28;;;23.33;41.21
59170;BME280;52474;52.236;5.114;2023-01-28T12:13:06;103136.03;;;22.82;40.35
59170;BME280;52474;52.236;5.114;2023-01-28T12:16:06;103129.09;;;22.26;39.88
59170;BME280;52474;52.236;5.114;2023-01-28T12:24:09;103131.06;;;18.05;48.47
59170;BME280;52474;52.236;5.114;2023-01-28T12:26:49;103123.25;;;18.45;49.01
59170;BME280;52474;52.236;5.114;2023-01-28T12:29:34;103120.72;;;17.55;54.51
59170;BME280;52474;52.236;5.114;2023-01-28T12:38:13;103106.00;;;15.06;63.78
59170;BME280;52474;52.236;5.114;2023-01-28T12:40:48;103081.25;;;14.36;73.79
59170;BME280;52474;52.236;5.114;2023-01-28T12:43:21;103069.78;;;13.08;82.78
59170;BME280;52474;52.236;5.114;2023-01-28T12:46:07;103076.50;;;14.81;77.23
59170;BME280;52474;52.236;5.114;2023-01-28T12:48:40;103052.25;;;15.61;72.69
59170;BME280;52474;52.236;5.114;2023-01-28T12:51:29;103049.19;;;15.03;70.17
59170;BME280;52474;52.236;5.114;2023-01-28T12:54:09;103053.59;;;13.56;83.17
59170;BME280;52474;52.236;5.114;2023-01-28T12:56:39;103069.78;;;11.20;88.39
59170;BME280;52474;52.236;5.114;2023-01-28T13:01:47;103056.34;;;13.55;85.99
59170;BME280;52474;52.236;5.114;2023-01-28T13:06:53;103056.38;;;10.53;97.41
59170;BME280;52474;52.236;5.114;2023-01-28T13:09:22;103059.63;;;11.28;91.68
59170;BME280;52474;52.236;5.114;2023-01-28T13:11:51;103017.84;;;14.14;86.77
59170;BME280;52474;52.236;5.114;2023-01-28T13:14:20;103031.53;;;18.51;63.41
59170;BME280;52474;52.236;5.114;2023-01-28T13:16:47;103043.34;;;19.33;58.13
59170;BME280;52474;52.236;5.114;2023-01-28T13:21:42;103024.84;;;19.89;50.11
59170;BME280;52474;52.236;5.114;2023-01-28T13:31:45;103044.97;;;9.20;100.00
59170;BME280;52474;52.236;5.114;2023-01-28T13:34:38;103055.94;;;8.70;100.00
59170;BME280;52474;52.236;5.114;2023-01-28T13:37:20;103059.97;;;8.58;100.00
59170;BME280;52474;52.236;5.114;2023-01-28T13:40:05;103060.34;;;8.49;100.00
59170;BME280;52474;52.236;5.114;2023-01-28T13:42:34;103043.91;;;8.63;100.00
59170;BME280;52474;52.236;5.114;2023-01-28T13:47:46;103048.19;;;8.45;100.00
59170;BME280;52474;52.236;5.114;2023-01-28T13:50:22;103049.53;;;8.11;100.00
59170;BME280;52474;52.236;5.114;2023-01-28T13:53:04;103035.38;;;7.68;100.00
59170;BME280;52474;52.236;5.114;2023-01-28T13:55:37;103060.34;;;7.58;100.00
59170;BME280;52474;52.236;5.114;2023-01-28T14:11:53;103086.22;;;7.23;100.00
59170;BME280;52474;52.236;5.114;2023-01-28T14:19:47;103074.97;;;6.93;100.00
59170;BME280;52474;52.236;5.114;2023-01-28T14:22:18;103088.97;;;6.68;100.00
59170;BME280;52474;52.236;5.114;2023-01-28T14:24:45;103086.63;;;6.59;100.00
59170;BME280;52474;52.236;5.114;2023-01-28T14:27:19;103073.69;;;6.24;100.00
59170;BME280;52474;52.236;5.114;2023-01-28T14:30:24;103066.13;;;6.14;100.00
59170;BME280;52474;52.236;5.114;2023-01-28T14:32:52;103055.38;;;6.21;100.00
59170;BME280;52474;52.236;5.114;2023-01-28T14:35:26;103051.41;;;6.08;100.00
59170;BME280;52474;52.236;5.114;2023-01-28T14:37:53;103053.16;;;6.08;100.00
59170;BME280;52474;52.236;5.114;2023-01-28T14:40:20;103065.34;;;6.10;100.00
59170;BME280;52474;52.236;5.114;2023-01-28T14:42:48;103061.56;;;5.91;100.00
59170;BME280;52474;52.236;5.114;2023-01-28T14:48:32;103072.34;;;5.52;100.00
59170;BME280;52474;52.236;5.114;2023-01-28T14:56:30;103081.47;;;5.06;100.00
59170;BME280;52474;52.236;5.114;2023-01-28T14:59:21;103096.03;;;5.18;100.00